createdAt,value
2019-04-28T00:01:57.963Z,73.06
2019-04-28T00:04:34.214Z,72.91
2019-04-28T00:07:11.911Z,72.66
2019-04-28T00:09:47.977Z,72.46
2019-04-28T00:12:23.924Z,72.57
2019-04-28T00:14:59.888Z,72.66
2019-04-28T00:17:35.850Z,72.69
2019-04-28T00:20:13.647Z,72.71
2019-04-28T00:23:01.394Z,72.79
2019-04-28T00:25:41.066Z,72.89
2019-04-28T00:28:17.079Z,73.21
2019-04-28T00:30:53.130Z,73.32
2019-04-28T00:33:29.099Z,73.30
2019-04-28T00:36:05.145Z,73.45
2019-04-28T00:38:41.572Z,73.44
2019-04-28T00:41:17.596Z,73.62
2019-04-28T00:43:53.637Z,73.64
2019-04-28T00:46:31.193Z,73.61
2019-04-28T00:49:07.291Z,73.53
2019-04-28T00:51:43.421Z,73.27
2019-04-28T00:54:19.401Z,73.07
2019-04-28T00:56:56.074Z,72.71
2019-04-28T00:59:32.039Z,72.10
2019-04-28T01:02:11.127Z,71.93
2019-04-28T01:04:47.217Z,72.08
2019-04-28T01:07:23.184Z,72.12
2019-04-28T01:09:59.132Z,72.16
2019-04-28T01:12:35.397Z,72.18
2019-04-28T01:15:13.819Z,72.44
2019-04-28T01:17:54.383Z,72.40
2019-04-28T01:20:30.340Z,72.46
2019-04-28T01:23:06.287Z,72.57
2019-04-28T01:25:42.241Z,72.67
2019-04-28T01:28:19.488Z,72.75
2019-04-28T01:30:57.538Z,72.87
2019-04-28T01:33:44.389Z,72.78
2019-04-28T01:36:20.413Z,72.89
2019-04-28T01:38:56.363Z,72.70
2019-04-28T01:41:32.336Z,72.45
2019-04-28T01:44:10.097Z,72.48
2019-04-28T01:46:45.874Z,72.26
2019-04-28T01:49:21.841Z,72.08
2019-04-28T01:52:01.047Z,71.98
2019-04-28T01:54:37.123Z,71.53
2019-04-28T01:57:13.077Z,71.37
2019-04-28T01:59:49.970Z,70.95
2019-04-28T02:02:26.016Z,70.99
2019-04-28T02:05:01.983Z,71.05
2019-04-28T02:07:37.941Z,70.98
2019-04-28T02:10:14.100Z,70.66
2019-04-28T02:12:50.393Z,70.43
2019-04-28T02:15:26.514Z,70.25
2019-04-28T02:18:02.471Z,70.46
2019-04-28T02:20:40.076Z,70.38
2019-04-28T02:23:17.556Z,70.43
2019-04-28T02:25:53.518Z,70.65
2019-04-28T02:28:29.685Z,70.68
2019-04-28T02:31:05.645Z,71.13
2019-04-28T02:33:41.808Z,71.50
2019-04-28T02:36:20.690Z,71.42
2019-04-28T02:38:57.698Z,71.02
2019-04-28T02:41:33.953Z,70.79
2019-04-28T02:44:10.453Z,70.90
2019-04-28T02:46:46.912Z,70.99
2019-04-28T02:49:30.512Z,71.10
2019-04-28T02:52:10.678Z,71.18
2019-04-28T02:54:46.801Z,71.16
2019-04-28T02:57:23.015Z,71.20
2019-04-28T03:00:00.433Z,71.18
2019-04-28T03:02:36.562Z,71.42
2019-04-28T03:05:12.533Z,71.31
2019-04-28T03:07:51.431Z,71.42
2019-04-28T03:10:27.610Z,71.47
2019-04-28T03:13:03.565Z,71.56
2019-04-28T03:15:41.398Z,71.59
2019-04-28T03:18:17.221Z,71.51
2019-04-28T03:20:53.174Z,71.58
2019-04-28T03:23:31.141Z,71.47
2019-04-28T03:26:14.828Z,71.41
2019-04-28T03:29:01.342Z,71.22
2019-04-28T03:32:04.235Z,70.82
2019-04-28T03:34:16.612Z,70.78
2019-04-28T03:36:52.655Z,71.00
2019-04-28T03:39:30.301Z,71.05
2019-04-28T03:42:06.438Z,71.04
2019-04-28T03:44:42.386Z,70.87
2019-04-28T03:47:21.038Z,71.19
2019-04-28T03:49:57.124Z,71.22
2019-04-28T03:52:33.133Z,71.12
2019-04-28T03:55:11.749Z,70.98
2019-04-28T03:57:47.080Z,70.79
2019-04-28T04:00:23.051Z,70.76
2019-04-28T04:03:00.808Z,70.66
2019-04-28T04:05:36.690Z,70.58
2019-04-28T04:08:12.654Z,70.37
2019-04-28T04:10:50.449Z,70.10
2019-04-28T04:13:41.601Z,70.07
2019-04-28T04:16:20.677Z,70.35
2019-04-28T04:19:00.734Z,70.52
2019-04-28T04:21:36.173Z,70.87
2019-04-28T04:24:12.078Z,70.87
2019-04-28T04:26:50.491Z,70.90
2019-04-28T04:29:25.755Z,70.88
2019-04-28T04:32:11.713Z,71.13
2019-04-28T04:34:40.851Z,71.06
2019-04-28T04:37:16.950Z,71.24
2019-04-28T04:39:52.859Z,71.43
2019-04-28T04:42:30.602Z,71.47
2019-04-28T04:45:06.968Z,71.42
2019-04-28T04:47:42.926Z,71.15
2019-04-28T04:50:20.879Z,71.28
2019-04-28T04:52:56.456Z,71.20
2019-04-28T04:55:33.088Z,71.09
2019-04-28T04:58:10.765Z,71.17
2019-04-28T05:01:00.839Z,71.26
2019-04-28T05:03:44.421Z,71.23
2019-04-28T05:06:36.811Z,71.35
2019-04-28T05:09:12.752Z,71.50
2019-04-28T05:11:49.968Z,71.51
2019-04-28T05:14:26.048Z,71.39
2019-04-28T05:17:01.932Z,71.36
2019-04-28T05:19:40.041Z,71.43
2019-04-28T05:22:17.057Z,71.39
2019-04-28T05:24:57.496Z,71.37
2019-04-28T05:27:33.420Z,71.01
2019-04-28T05:30:10.428Z,70.30
2019-04-28T05:32:53.639Z,70.09
2019-04-28T05:35:25.258Z,69.67
2019-04-28T05:38:01.281Z,69.14
2019-04-28T05:40:37.238Z,68.67
2019-04-28T05:43:13.218Z,68.50
2019-04-28T05:45:49.889Z,68.41
2019-04-28T05:48:36.425Z,68.38
2019-04-28T05:51:23.582Z,68.38
2019-04-28T05:54:01.337Z,68.31
2019-04-28T05:56:44.654Z,68.23
2019-04-28T05:59:22.134Z,68.31
2019-04-28T06:02:02.297Z,67.84
2019-04-28T06:04:38.321Z,67.74
2019-04-28T06:07:20.233Z,68.05
2019-04-28T06:09:55.916Z,67.42
2019-04-28T06:12:31.993Z,67.39
2019-04-28T06:15:10.370Z,67.19
2019-04-28T06:17:45.737Z,66.72
2019-04-28T06:20:21.643Z,66.35
2019-04-28T06:22:57.612Z,66.65
2019-04-28T06:25:33.560Z,65.39
2019-04-28T06:28:09.728Z,65.55
2019-04-28T06:30:45.664Z,65.75
2019-04-28T06:33:21.624Z,64.80
2019-04-28T06:35:57.591Z,64.86
2019-04-28T06:38:33.456Z,64.50
2019-04-28T06:41:09.686Z,64.17
2019-04-28T06:43:45.567Z,64.41
2019-04-28T06:46:21.582Z,63.93
2019-04-28T06:48:57.577Z,63.95
2019-04-28T06:51:33.482Z,63.22
2019-04-28T06:54:10.923Z,62.44
2019-04-28T06:56:46.883Z,62.74
2019-04-28T06:59:23.953Z,61.96
2019-04-28T07:02:00.946Z,62.22
2019-04-28T07:04:36.889Z,62.63
2019-04-28T07:07:12.860Z,62.21
2019-04-28T07:09:48.824Z,62.44
2019-04-28T07:12:24.769Z,61.41
2019-04-28T07:15:00.634Z,61.57
2019-04-28T07:17:37.051Z,60.94
2019-04-28T07:20:18.870Z,60.71
2019-04-28T07:22:54.828Z,60.54
2019-04-28T07:25:31.107Z,60.99
2019-04-28T07:28:07.049Z,61.24
2019-04-28T07:30:43.108Z,60.16
2019-04-28T07:33:21.481Z,61.02
2019-04-28T07:35:57.487Z,61.02
2019-04-28T07:38:33.446Z,61.42
2019-04-28T07:41:09.389Z,61.01
2019-04-28T07:43:45.369Z,60.95
2019-04-28T07:46:21.334Z,60.52
2019-04-28T07:48:57.275Z,59.76
2019-04-28T07:51:37.724Z,60.30
2019-04-28T07:54:15.215Z,60.12
2019-04-28T07:56:51.277Z,59.95
2019-04-28T07:59:27.231Z,59.88
2019-04-28T08:02:03.191Z,59.38
2019-04-28T08:04:39.150Z,59.02
2019-04-28T08:07:15.099Z,59.08
2019-04-28T08:09:51.066Z,59.59
2019-04-28T08:12:26.971Z,58.88
2019-04-28T08:15:03.081Z,58.95
2019-04-28T08:17:39.659Z,58.43
2019-04-28T08:20:15.812Z,58.81
2019-04-28T08:22:51.768Z,58.90
2019-04-28T08:25:27.731Z,59.56
2019-04-28T08:28:04.812Z,59.23
2019-04-28T08:30:40.753Z,59.10
2019-04-28T08:33:18.249Z,58.96
2019-04-28T08:35:54.216Z,59.09
2019-04-28T08:38:30.261Z,58.57
2019-04-28T08:41:06.220Z,59.02
2019-04-28T08:43:42.950Z,59.42
2019-04-28T08:46:18.826Z,58.84
2019-04-28T08:48:54.747Z,58.12
2019-04-28T08:51:30.670Z,57.13
2019-04-28T08:54:06.683Z,55.48
2019-04-28T08:56:42.587Z,55.91
2019-04-28T08:59:18.718Z,56.13
2019-04-28T09:01:54.635Z,56.49
2019-04-28T09:04:30.542Z,56.88
2019-04-28T09:07:06.498Z,56.99
2019-04-28T09:12:30.369Z,56.95
2019-04-28T09:15:10.718Z,56.88
2019-04-28T09:17:47.096Z,57.59
2019-04-28T09:20:23.063Z,58.04
2019-04-28T09:22:59.020Z,58.07
2019-04-28T09:25:34.966Z,57.35
2019-04-28T09:28:11.446Z,57.07
2019-04-28T09:30:47.905Z,56.06
2019-04-28T09:33:23.962Z,56.51
2019-04-28T09:35:59.919Z,57.06
2019-04-28T09:38:36.623Z,56.23
2019-04-28T09:41:12.550Z,56.01
2019-04-28T09:43:56.389Z,56.37
2019-04-28T09:46:39.920Z,56.84
2019-04-28T09:49:15.890Z,56.67
2019-04-28T09:51:51.946Z,56.55
2019-04-28T09:54:28.007Z,56.79
2019-04-28T09:57:04.160Z,55.82
2019-04-28T09:59:40.319Z,55.15
2019-04-28T10:02:16.694Z,55.33
2019-04-28T10:04:54.177Z,54.61
2019-04-28T10:07:30.100Z,54.94
2019-04-28T10:10:08.455Z,55.27
2019-04-28T10:12:44.352Z,54.85
2019-04-28T10:15:20.570Z,55.23
2019-04-28T10:17:56.933Z,55.09
2019-04-28T10:20:32.895Z,54.95
2019-04-28T10:23:08.852Z,54.77
2019-04-28T10:25:46.174Z,54.95
2019-04-28T10:28:22.092Z,54.40
2019-04-28T10:30:58.192Z,54.34
2019-04-28T10:33:34.101Z,53.51
2019-04-28T10:36:10.057Z,53.90
2019-04-28T10:38:47.614Z,54.25
2019-04-28T10:41:28.262Z,54.52
2019-04-28T10:44:05.302Z,54.19
2019-04-28T10:46:41.977Z,53.64
2019-04-28T10:49:20.332Z,53.95
2019-04-28T10:51:59.578Z,53.97
2019-04-28T10:54:33.949Z,53.90
2019-04-28T10:57:09.915Z,54.00
2019-04-28T10:59:45.971Z,53.88
2019-04-28T11:02:21.876Z,53.16
2019-04-28T11:05:08.584Z,53.71
2019-04-28T11:07:39.834Z,53.40
2019-04-28T11:10:22.268Z,52.95
2019-04-28T11:12:58.241Z,52.81
2019-04-28T11:15:37.981Z,51.70
2019-04-28T11:18:15.489Z,51.56
2019-04-28T11:20:51.474Z,51.85
2019-04-28T11:23:27.386Z,51.44
2019-04-28T11:26:03.275Z,51.85
2019-04-28T11:28:39.289Z,52.10
2019-04-28T11:31:15.358Z,51.59
2019-04-28T11:33:53.919Z,51.04
2019-04-28T11:36:29.941Z,51.48
2019-04-28T11:39:08.687Z,51.47
2019-04-28T11:41:46.152Z,50.89
2019-04-28T11:44:22.258Z,50.60
2019-04-28T11:46:58.359Z,50.08
2019-04-28T11:49:34.325Z,50.63
2019-04-28T11:52:10.343Z,50.79
2019-04-28T11:54:46.328Z,50.28
2019-04-28T11:57:22.288Z,50.20
2019-04-28T11:59:58.255Z,49.73
2019-04-28T12:02:34.197Z,49.89
2019-04-28T12:05:11.401Z,49.31
2019-04-28T12:07:47.337Z,49.66
2019-04-28T12:10:37.233Z,49.64
2019-04-28T12:13:17.683Z,49.89
2019-04-28T12:15:58.159Z,49.86
2019-04-28T12:18:44.859Z,50.17
2019-04-28T12:21:21.231Z,50.42
2019-04-28T12:23:57.194Z,50.26
2019-04-28T12:26:33.147Z,49.98
2019-04-28T12:29:09.105Z,50.26
2019-04-28T12:31:45.056Z,49.82
2019-04-28T12:34:21.002Z,49.71
2019-04-28T12:36:56.972Z,49.43
2019-04-28T12:39:33.018Z,49.97
2019-04-28T12:42:09.956Z,51.35
2019-04-28T12:44:46.257Z,51.71
2019-04-28T12:47:22.228Z,50.12
2019-04-28T12:49:59.828Z,50.56
2019-04-28T12:52:35.873Z,50.82
2019-04-28T12:55:12.138Z,49.87
2019-04-28T12:57:48.101Z,50.34
2019-04-28T13:00:28.905Z,50.90
2019-04-28T13:03:22.948Z,51.09
2019-04-28T13:06:04.004Z,51.27
2019-04-28T13:08:38.734Z,51.04
2019-04-28T13:11:16.058Z,51.44
2019-04-28T13:13:52.106Z,51.30
2019-04-28T13:16:28.059Z,51.37
2019-04-28T13:19:04.582Z,51.52
2019-04-28T13:21:42.262Z,51.65
2019-04-28T13:24:18.184Z,51.77
2019-04-28T13:26:54.452Z,51.71
2019-04-28T13:29:30.493Z,51.77
2019-04-28T13:32:07.573Z,52.39
2019-04-28T13:34:43.972Z,52.72
2019-04-28T13:37:20.013Z,52.50
2019-04-28T13:40:00.564Z,53.23
2019-04-28T13:42:36.537Z,53.28
2019-04-28T13:45:14.464Z,52.78
2019-04-28T13:47:50.393Z,52.85
2019-04-28T13:50:31.364Z,52.67
2019-04-28T13:53:07.836Z,52.59
2019-04-28T13:55:48.706Z,53.58
2019-04-28T13:58:26.313Z,54.06
2019-04-28T14:01:07.322Z,53.65
2019-04-28T14:04:00.422Z,55.49
2019-04-28T14:06:38.020Z,55.70
2019-04-28T14:09:15.775Z,55.83
2019-04-28T14:11:51.772Z,56.68
2019-04-28T14:14:27.717Z,57.27
2019-04-28T14:17:03.844Z,58.45
2019-04-28T14:19:39.961Z,58.25
2019-04-28T14:22:16.009Z,57.15
2019-04-28T14:24:51.997Z,58.43
2019-04-28T14:27:28.196Z,59.16
2019-04-28T14:30:06.075Z,60.74
2019-04-28T14:32:42.099Z,60.11
2019-04-28T14:35:18.259Z,60.40
2019-04-28T14:37:54.230Z,62.56
2019-04-28T14:40:33.616Z,61.65
2019-04-28T14:43:10.335Z,62.36
2019-04-28T14:45:46.589Z,63.15
2019-04-28T14:48:22.535Z,62.79
2019-04-28T14:50:58.496Z,63.82
2019-04-28T14:53:34.671Z,65.31
2019-04-28T14:56:10.723Z,65.53
2019-04-28T14:58:47.641Z,65.67
2019-04-28T15:01:37.214Z,66.48
2019-04-28T15:04:16.603Z,66.86
2019-04-28T15:07:06.286Z,66.26
2019-04-28T15:10:00.272Z,66.53
2019-04-28T15:12:37.450Z,67.35
2019-04-28T15:15:13.721Z,67.66
2019-04-28T15:17:49.820Z,67.16
2019-04-28T15:20:26.020Z,67.00
2019-04-28T15:23:03.121Z,68.24
2019-04-28T15:25:39.183Z,68.00
2019-04-28T15:28:15.242Z,68.13
2019-04-28T15:30:51.302Z,69.73
2019-04-28T15:33:27.246Z,68.45
2019-04-28T15:36:03.215Z,70.11
2019-04-28T15:38:39.285Z,70.61
2019-04-28T15:41:21.808Z,70.49
2019-04-28T15:43:52.917Z,70.35
2019-04-28T15:46:28.873Z,71.19
2019-04-28T15:49:04.839Z,71.52
2019-04-28T15:51:40.728Z,71.89
2019-04-28T15:54:16.775Z,72.10
2019-04-28T15:56:52.703Z,72.58
2019-04-28T15:59:28.770Z,73.02
2019-04-28T16:02:04.866Z,73.08
2019-04-28T16:04:41.344Z,73.50
2019-04-28T16:07:24.656Z,73.59
2019-04-28T16:09:55.044Z,73.92
2019-04-28T16:12:31.102Z,73.66
2019-04-28T16:15:07.640Z,74.45
2019-04-28T16:17:43.625Z,73.72
2019-04-28T16:20:19.685Z,74.95
2019-04-28T16:22:55.958Z,74.35
2019-04-28T16:25:31.901Z,74.29
2019-04-28T16:28:09.404Z,74.27
2019-04-28T16:30:45.354Z,74.51
2019-04-28T16:33:21.306Z,75.05
2019-04-28T16:35:58.402Z,75.19
2019-04-28T16:38:34.359Z,75.32
2019-04-28T16:41:11.334Z,75.85
2019-04-28T16:43:47.944Z,76.56
2019-04-28T16:46:23.957Z,77.14
2019-04-28T16:48:59.918Z,77.31
2019-04-28T16:51:35.882Z,78.00
2019-04-28T16:54:11.941Z,78.24
2019-04-28T16:56:59.369Z,78.55
2019-04-28T16:59:46.073Z,78.56
2019-04-28T17:02:23.577Z,78.95
2019-04-28T17:04:59.521Z,78.78
2019-04-28T17:07:35.414Z,79.18
2019-04-28T17:10:11.540Z,79.20
2019-04-28T17:12:47.483Z,79.67
2019-04-28T17:15:23.655Z,79.53
2019-04-28T17:17:59.603Z,79.57
2019-04-28T17:20:35.748Z,79.29
2019-04-28T17:23:13.724Z,79.54
2019-04-28T17:25:50.035Z,79.87
2019-04-28T17:28:26.089Z,80.24
2019-04-28T17:31:02.119Z,80.73
2019-04-28T17:33:38.114Z,80.84
2019-04-28T17:36:14.061Z,81.28
2019-04-28T17:38:50.034Z,81.22
2019-04-28T17:41:26.282Z,81.07
2019-04-28T17:44:02.237Z,81.24
2019-04-28T17:46:38.311Z,81.50
2019-04-28T17:49:14.263Z,81.86
2019-04-28T17:51:50.800Z,81.26
2019-04-28T17:54:26.749Z,81.49
2019-04-28T17:57:02.737Z,82.19
2019-04-28T17:59:39.104Z,82.30
2019-04-28T18:02:32.876Z,82.55
2019-04-28T18:05:13.541Z,82.46
2019-04-28T18:07:50.740Z,82.45
2019-04-28T18:10:28.320Z,82.42
2019-04-28T18:13:04.439Z,82.89
2019-04-28T18:15:59.999Z,83.01
2019-04-28T18:18:37.487Z,83.16
2019-04-28T18:21:13.377Z,82.79
2019-04-28T18:23:49.412Z,82.89
2019-04-28T18:26:25.332Z,82.83
2019-04-28T18:29:01.735Z,82.46
2019-04-28T18:31:58.029Z,82.99
2019-04-28T18:34:47.748Z,83.02
2019-04-28T18:37:40.191Z,83.36
2019-04-28T18:40:27.083Z,83.44
2019-04-28T18:43:05.335Z,83.38
2019-04-28T18:45:41.266Z,83.14
2019-04-28T18:48:17.151Z,83.89
2019-04-28T18:50:53.106Z,83.79
2019-04-28T18:53:28.997Z,84.09
2019-04-28T18:56:04.953Z,84.20
2019-04-28T18:58:40.878Z,84.16
2019-04-28T19:01:33.750Z,84.56
2019-04-28T19:04:09.771Z,84.33
2019-04-28T19:06:45.716Z,84.43
2019-04-28T19:09:23.247Z,84.25
2019-04-28T19:12:06.741Z,84.26
2019-04-28T19:14:59.446Z,84.12
2019-04-28T19:17:43.197Z,84.08
2019-04-28T19:20:19.144Z,84.46
2019-04-28T19:22:55.077Z,84.58
2019-04-28T19:25:30.961Z,84.69
2019-04-28T19:28:07.865Z,84.42
2019-04-28T19:30:45.716Z,84.47
2019-04-28T19:33:22.240Z,84.73
2019-04-28T19:35:58.421Z,84.56
2019-04-28T19:38:34.367Z,84.46
2019-04-28T19:41:10.604Z,84.78
2019-04-28T19:43:46.553Z,85.13
2019-04-28T19:46:22.473Z,85.28
2019-04-28T19:48:58.527Z,85.19
2019-04-28T19:51:34.910Z,85.38
2019-04-28T19:54:11.508Z,85.50
2019-04-28T19:57:07.151Z,85.38
2019-04-28T20:00:01.716Z,85.46
2019-04-28T20:02:39.252Z,85.57
2019-04-28T20:05:15.168Z,85.41
2019-04-28T20:07:51.215Z,85.68
2019-04-28T20:10:27.137Z,85.67
2019-04-28T20:13:03.019Z,85.67
2019-04-28T20:15:39.030Z,85.85
2019-04-28T20:18:14.949Z,85.98
2019-04-28T20:20:50.861Z,85.71
2019-04-28T20:23:26.993Z,85.95
2019-04-28T20:26:03.114Z,86.03
2019-04-28T20:28:39.184Z,86.12
2019-04-28T20:31:15.068Z,86.28
2019-04-28T20:33:50.962Z,86.11
2019-04-28T20:36:32.972Z,86.54
2019-04-28T20:39:10.716Z,86.72
2019-04-28T20:41:48.133Z,86.70
2019-04-28T20:44:24.104Z,86.73
2019-04-28T20:47:00.030Z,86.51
2019-04-28T20:49:35.956Z,86.62
2019-04-28T20:52:11.898Z,86.84
2019-04-28T20:54:47.784Z,86.94
2019-04-28T20:57:23.716Z,87.05
2019-04-28T20:59:59.887Z,87.29
2019-04-28T21:02:37.605Z,87.52
2019-04-28T21:05:13.534Z,87.73
2019-04-28T21:07:49.467Z,87.92
2019-04-28T21:10:37.291Z,87.68
2019-04-28T21:13:03.039Z,87.74
2019-04-28T21:15:38.982Z,88.02
2019-04-28T21:18:14.925Z,88.27
2019-04-28T21:20:51.382Z,88.08
2019-04-28T21:23:27.307Z,87.94
2019-04-28T21:26:03.185Z,87.84
2019-04-28T21:28:39.312Z,87.63
2019-04-28T21:31:15.228Z,87.93
2019-04-28T21:33:51.164Z,87.77
2019-04-28T21:36:27.108Z,87.96
2019-04-28T21:39:03.026Z,88.13
2019-04-28T21:41:40.716Z,88.06
2019-04-28T21:44:18.215Z,87.96
2019-04-28T21:46:58.716Z,88.02
2019-04-28T21:49:36.205Z,88.38
2019-04-28T21:52:12.381Z,87.95
2019-04-28T21:54:48.338Z,87.99
2019-04-28T21:57:24.224Z,88.35
2019-04-28T22:00:00.171Z,88.58
2019-04-28T22:02:36.188Z,88.39
2019-04-28T22:05:12.343Z,88.47
2019-04-28T22:07:49.518Z,88.62
2019-04-28T22:10:25.455Z,88.10
2019-04-28T22:13:01.416Z,88.43
2019-04-28T22:15:37.368Z,88.35
2019-04-28T22:18:13.325Z,88.14
2019-04-28T22:20:50.420Z,88.85
2019-04-28T22:23:40.294Z,88.89
2019-04-28T22:26:32.941Z,88.93
2019-04-28T22:29:09.526Z,89.07
2019-04-28T22:31:45.957Z,88.58
2019-04-28T22:34:22.039Z,88.81
2019-04-28T22:36:57.991Z,88.81
2019-04-28T22:39:33.961Z,88.90
2019-04-28T22:42:11.410Z,88.87
2019-04-28T22:44:47.473Z,89.05
2019-04-28T22:47:23.416Z,89.03
2019-04-28T22:49:59.415Z,88.76
2019-04-28T22:52:35.381Z,88.85
2019-04-28T22:55:12.859Z,88.53
2019-04-28T22:57:50.468Z,89.16
2019-04-28T23:00:41.159Z,88.89
2019-04-28T23:03:25.014Z,88.98
2019-04-28T23:06:01.059Z,89.62
2019-04-28T23:08:37.015Z,89.16
2019-04-28T23:11:12.920Z,89.57
2019-04-28T23:13:48.828Z,89.54
2019-04-28T23:16:24.721Z,89.55
2019-04-28T23:19:01.842Z,89.16
2019-04-28T23:21:40.430Z,89.61
2019-04-28T23:24:16.358Z,89.84
2019-04-28T23:26:52.315Z,89.89
2019-04-28T23:29:30.567Z,89.47
2019-04-28T23:32:06.103Z,89.33
2019-04-28T23:34:42.065Z,89.58
2019-04-28T23:37:17.986Z,89.34
2019-04-28T23:39:53.894Z,89.22
2019-04-28T23:42:34.381Z,89.25
2019-04-28T23:45:12.253Z,89.26
2019-04-28T23:47:48.127Z,89.42
2019-04-28T23:50:41.072Z,89.49
2019-04-28T23:53:18.581Z,89.62
2019-04-28T23:55:54.505Z,89.59
2019-04-28T23:58:30.428Z,89.36
